Appleton, Illinois
Current Conditions -  °F | °C
As of 5:55 PM on Friday 24 Oct 2014 (Local Time) from KGBG Reporting Station
Overcast Overcast  
Wind Chill: 65°   Ceiling: 3900
Heat Index: 65°   Visibility: 10mi
Dew Point: 54°   Wind: 6mph
Humidity: 68%   Direction: 150°SSE
Pressure: 29.93"   Gusts: NA
Location:  40.9602°N, 90.1517°W
Report Text: KGBG 242255Z AUTO 15005KT 10SM OVC039 18/12 A2993 RMK AO2 T01810122
Loading
Personal Weather Stations






























Interactive Weather Map New forecast layout! Learn more

10-Day Weather Forecast

Advertisements
Track Severe Weather on mobile